To NAV CANADA Home Page Login to a new session Search on AWWS site Feedback and Comments Disclaimer Vers la page française équivalente Tips FAQ What's new on the site To the Forecasts and Observations / NOTAM section To "File a Flight Plan" website Publications and other links Update of the User's profile FIC Telephone Numbers My Weather Data Folder Route Weather Data Regional Weather Data Local Weather Data To the Forecasts and Observations / NOTAM section
Request Generated 05/28/2015 at 01:35:28 UTC . Weather information available at that time is displayed.

METAR/TAF

HIGH LEVEL/AB    (show WxCam)

METAR CYOJ 280100Z 35014G22KT 15SM FEW055 FEW085 SCT260 11/M04 A3021
RMK SC1AC1CI3 SC TR AC TR SLP244=
METAR CYOJ 280000Z 03015G22KT 350V050 15SM FEW011 FEW055 FEW085
BKN260 10/M04 A3020 RMK SC1SC1AC1CI4 SC TR SC TR SLP239=
METAR CYOJ 272300Z 01012G21KT 15SM FEW011 FEW055 SCT085 BKN260 10/M01
A3018 RMK SC1SC1AC2CI3 SC TR SLP233=

TAF CYOJ 280038Z 2801/2813 01012G22KT P6SM FEW010 SCT080
BECMG 2802/2804 01012KT
RMK NXT FCST BY 280700Z=
Your time UTC time
Weather data provided by Environment Canada and NAV CANADA